createdAt,value
2023-08-29T00:00:16.577Z,8.40
2023-08-29T00:03:08.648Z,9.70
2023-08-29T00:05:36.738Z,7.10
2023-08-29T00:08:05.231Z,7.00
2023-08-29T00:10:33.509Z,7.80
2023-08-29T00:13:01.528Z,7.30
2023-08-29T00:15:29.483Z,8.60
2023-08-29T00:17:57.454Z,8.70
2023-08-29T00:20:25.518Z,7.40
2023-08-29T00:22:53.483Z,6.80
2023-08-29T00:25:21.471Z,8.70
2023-08-29T00:27:49.297Z,8.40
2023-08-29T00:30:17.415Z,7.10
2023-08-29T00:32:46.274Z,8.80
2023-08-29T00:35:14.430Z,7.10
2023-08-29T00:37:42.448Z,7.10
2023-08-29T00:40:11.742Z,9.60
2023-08-29T00:42:39.910Z,7.80
2023-08-29T00:45:08.216Z,8.20
2023-08-29T00:47:36.598Z,8.10
2023-08-29T00:50:06.943Z,7.40
2023-08-29T00:52:35.291Z,10.30
2023-08-29T00:55:03.853Z,8.30
2023-08-29T00:57:32.139Z,8.10
2023-08-29T01:00:00.316Z,8.80
2023-08-29T01:02:28.266Z,7.70
2023-08-29T01:04:56.245Z,8.70
2023-08-29T01:07:24.291Z,8.00
2023-08-29T01:09:52.916Z,10.80
2023-08-29T01:12:20.888Z,7.70
2023-08-29T01:14:59.745Z,8.70
2023-08-29T01:17:35.929Z,10.10
2023-08-29T01:20:07.606Z,8.00
2023-08-29T01:23:11.704Z,8.50
2023-08-29T01:26:14.170Z,10.50
2023-08-29T01:28:44.980Z,7.00
2023-08-29T01:31:13.869Z,8.10
2023-08-29T01:33:42.480Z,9.30
2023-08-29T01:36:10.525Z,9.90
2023-08-29T01:38:38.426Z,7.50
2023-08-29T01:41:06.916Z,8.60
2023-08-29T01:43:35.853Z,7.70
2023-08-29T01:46:03.791Z,7.00
2023-08-29T01:48:32.890Z,8.30
2023-08-29T01:51:00.920Z,7.80
2023-08-29T01:53:29.426Z,7.50
2023-08-29T01:55:59.717Z,6.90
2023-08-29T01:58:29.010Z,8.40
2023-08-29T02:01:04.101Z,7.00
2023-08-29T02:03:38.169Z,7.50
2023-08-29T02:06:06.120Z,8.10
2023-08-29T02:08:33.980Z,7.70
2023-08-29T02:11:01.938Z,6.90
2023-08-29T02:13:29.871Z,8.40
2023-08-29T02:15:57.837Z,9.00
2023-08-29T02:18:26.555Z,7.10
2023-08-29T02:20:54.596Z,7.20
2023-08-29T02:23:22.656Z,6.60
2023-08-29T02:26:05.310Z,6.30
2023-08-29T02:28:38.461Z,6.70
2023-08-29T02:31:10.004Z,7.20
2023-08-29T02:33:39.555Z,6.40
2023-08-29T02:36:08.178Z,6.00
2023-08-29T02:38:36.589Z,8.70
2023-08-29T02:41:11.044Z,6.70
2023-08-29T02:43:40.297Z,6.90
2023-08-29T02:46:08.518Z,6.80
2023-08-29T02:48:36.634Z,6.90
2023-08-29T02:51:04.663Z,6.20
2023-08-29T02:53:32.670Z,7.40
2023-08-29T02:56:00.760Z,5.60
2023-08-29T02:58:28.877Z,6.20
2023-08-29T03:01:01.261Z,7.20
2023-08-29T03:03:29.378Z,7.20
2023-08-29T03:05:58.344Z,6.50
2023-08-29T03:08:27.697Z,7.10
2023-08-29T03:10:56.170Z,6.80
2023-08-29T03:13:24.360Z,5.50
2023-08-29T03:15:52.276Z,7.30
2023-08-29T03:18:20.289Z,5.60
2023-08-29T03:20:48.396Z,6.20
2023-08-29T03:23:16.399Z,6.90
2023-08-29T03:25:44.424Z,7.40
2023-08-29T03:28:12.364Z,7.90
2023-08-29T03:30:40.381Z,6.10
2023-08-29T03:33:08.402Z,7.90
2023-08-29T03:35:38.237Z,7.00
2023-08-29T03:38:07.368Z,7.10
2023-08-29T03:40:35.785Z,9.40
2023-08-29T03:43:03.904Z,7.60
2023-08-29T03:45:32.909Z,7.90
2023-08-29T03:48:02.438Z,8.20
2023-08-29T03:50:31.724Z,8.10
2023-08-29T03:52:59.628Z,8.50
2023-08-29T03:55:27.495Z,7.40
2023-08-29T03:57:55.782Z,8.60
2023-08-29T04:00:23.881Z,7.60
2023-08-29T04:02:52.022Z,8.90
2023-08-29T04:05:20.151Z,9.50
2023-08-29T04:07:48.896Z,7.30
2023-08-29T04:10:17.005Z,9.70
2023-08-29T04:12:46.164Z,8.00
2023-08-29T04:15:14.288Z,8.40
2023-08-29T04:17:42.321Z,8.60
2023-08-29T04:20:11.651Z,7.30
2023-08-29T04:22:40.588Z,7.80
2023-08-29T04:25:10.062Z,8.90
2023-08-29T04:27:39.090Z,8.10
2023-08-29T04:30:07.660Z,7.70
2023-08-29T04:32:38.327Z,6.50
2023-08-29T04:35:08.067Z,9.00
2023-08-29T04:37:36.385Z,7.30
2023-08-29T04:40:08.020Z,9.90
2023-08-29T04:42:36.084Z,7.50
2023-08-29T04:45:07.732Z,7.30
2023-08-29T04:47:36.583Z,9.30
2023-08-29T04:50:05.074Z,8.10
2023-08-29T04:52:34.233Z,7.60
2023-08-29T04:55:02.383Z,11.10
2023-08-29T04:57:34.422Z,8.00
2023-08-29T05:00:04.825Z,8.20
2023-08-29T05:02:33.199Z,9.10
2023-08-29T05:05:01.252Z,9.30
2023-08-29T05:07:30.840Z,8.80
2023-08-29T05:10:01.154Z,9.10
2023-08-29T05:12:32.394Z,8.20
2023-08-29T05:15:00.406Z,8.20
2023-08-29T05:17:28.463Z,7.00
2023-08-29T05:19:56.454Z,9.20
2023-08-29T05:22:24.384Z,8.00
2023-08-29T05:24:52.352Z,10.10
2023-08-29T05:27:20.259Z,8.90
2023-08-29T05:29:48.220Z,7.60
2023-08-29T05:32:16.180Z,10.60
2023-08-29T05:34:44.425Z,8.40
2023-08-29T05:37:12.366Z,7.70
2023-08-29T05:39:40.391Z,7.30
2023-08-29T05:42:08.429Z,8.40
2023-08-29T05:44:36.514Z,6.90
2023-08-29T05:47:04.860Z,7.20
2023-08-29T05:49:32.972Z,6.60
2023-08-29T05:52:00.939Z,7.80
2023-08-29T05:54:29.752Z,6.60
2023-08-29T05:56:57.713Z,9.10
2023-08-29T05:59:25.597Z,7.30
2023-08-29T06:01:53.716Z,8.70
2023-08-29T06:04:21.729Z,9.60
2023-08-29T06:06:50.468Z,9.30
2023-08-29T06:09:19.739Z,7.10
2023-08-29T06:11:47.700Z,7.20
2023-08-29T06:14:15.641Z,7.60
2023-08-29T06:16:43.527Z,7.30
2023-08-29T06:19:11.658Z,8.50
2023-08-29T06:21:40.209Z,8.20
2023-08-29T06:24:08.212Z,8.40
2023-08-29T06:26:36.512Z,7.30
2023-08-29T06:29:05.279Z,9.00
2023-08-29T06:31:33.807Z,9.70
2023-08-29T06:34:01.843Z,11.60
2023-08-29T06:36:29.946Z,8.30
2023-08-29T06:38:57.912Z,9.20
2023-08-29T06:41:25.856Z,8.00
2023-08-29T06:43:53.799Z,8.90
2023-08-29T06:46:21.837Z,9.50
2023-08-29T06:48:49.706Z,9.50
2023-08-29T06:51:17.848Z,9.40
2023-08-29T06:53:45.840Z,8.50
2023-08-29T06:56:13.815Z,7.30
2023-08-29T06:58:41.920Z,9.90
2023-08-29T07:01:09.991Z,9.50
2023-08-29T07:03:38.299Z,8.10
2023-08-29T07:06:07.870Z,10.00
2023-08-29T07:08:35.880Z,9.90
2023-08-29T07:11:03.820Z,10.60
2023-08-29T07:13:31.711Z,10.20
2023-08-29T07:15:59.969Z,8.60
2023-08-29T07:18:27.968Z,8.90
2023-08-29T07:20:56.157Z,10.40
2023-08-29T07:23:24.567Z,7.40
2023-08-29T07:25:52.536Z,8.80
2023-08-29T07:28:20.633Z,8.50
2023-08-29T07:30:51.370Z,8.40
2023-08-29T07:33:20.862Z,12.50
2023-08-29T07:35:51.984Z,10.60
2023-08-29T07:38:20.842Z,11.40
2023-08-29T07:40:48.835Z,10.70
2023-08-29T07:43:17.181Z,10.60
2023-08-29T07:45:46.395Z,8.90
2023-08-29T07:48:14.393Z,9.80
2023-08-29T07:50:42.500Z,10.40
2023-08-29T07:53:10.488Z,10.10
2023-08-29T07:55:38.708Z,13.60
2023-08-29T07:58:06.990Z,13.00
2023-08-29T08:00:35.536Z,8.70
2023-08-29T08:03:06.776Z,12.40
2023-08-29T08:05:35.123Z,14.00
2023-08-29T08:08:03.317Z,14.50
2023-08-29T08:10:32.867Z,12.90
2023-08-29T08:13:05.005Z,11.90
2023-08-29T08:15:32.925Z,12.10
2023-08-29T08:18:00.832Z,14.80
2023-08-29T08:20:29.706Z,11.10
2023-08-29T08:22:57.798Z,12.30
2023-08-29T08:25:25.907Z,10.90
2023-08-29T08:27:53.763Z,11.40
2023-08-29T08:30:23.367Z,12.40
2023-08-29T08:32:51.537Z,12.40
2023-08-29T08:35:20.125Z,10.30
2023-08-29T08:37:47.991Z,9.50
2023-08-29T08:40:16.298Z,10.80
2023-08-29T08:42:45.754Z,11.30
2023-08-29T08:45:14.839Z,9.40
2023-08-29T08:47:44.166Z,11.00
2023-08-29T08:50:12.955Z,11.70
2023-08-29T08:52:43.195Z,11.10
2023-08-29T08:55:11.555Z,11.90
2023-08-29T08:57:40.032Z,13.30
2023-08-29T09:00:09.075Z,13.20
2023-08-29T09:02:38.977Z,11.80
2023-08-29T09:05:10.246Z,14.30
2023-08-29T09:07:42.720Z,12.50
2023-08-29T09:10:16.877Z,12.50
2023-08-29T09:12:53.193Z,15.00
2023-08-29T09:15:21.340Z,12.80
2023-08-29T09:17:51.094Z,15.40
2023-08-29T09:20:19.693Z,13.20
2023-08-29T09:22:48.495Z,15.00
2023-08-29T09:25:16.495Z,13.00
2023-08-29T09:27:48.405Z,13.30
2023-08-29T09:30:18.516Z,15.10
2023-08-29T09:32:48.780Z,12.40
2023-08-29T09:35:20.976Z,17.70
2023-08-29T09:37:54.402Z,12.20
2023-08-29T09:43:02.068Z,12.80
2023-08-29T09:45:31.258Z,14.70
2023-08-29T09:48:08.694Z,13.20
2023-08-29T09:50:37.822Z,16.10
2023-08-29T09:53:07.298Z,14.20
2023-08-29T09:55:44.899Z,13.20
2023-08-29T09:58:16.369Z,15.70
2023-08-29T10:00:44.922Z,15.20
2023-08-29T10:03:12.984Z,16.70
2023-08-29T10:05:45.450Z,14.20
2023-08-29T10:08:19.416Z,15.40
2023-08-29T10:10:48.590Z,13.70
2023-08-29T10:13:17.195Z,16.60
2023-08-29T10:15:47.291Z,12.80
2023-08-29T10:18:16.412Z,12.60
2023-08-29T10:20:45.891Z,13.70
2023-08-29T10:23:17.317Z,14.10
2023-08-29T10:25:46.496Z,12.60
2023-08-29T10:28:16.079Z,14.80
2023-08-29T10:30:49.019Z,16.30
2023-08-29T10:33:17.425Z,14.30
2023-08-29T10:35:49.145Z,15.30
2023-08-29T10:38:18.221Z,12.90
2023-08-29T10:40:47.515Z,14.10
2023-08-29T10:43:30.796Z,16.50
2023-08-29T10:46:16.876Z,18.80
2023-08-29T10:48:47.762Z,14.30
2023-08-29T10:51:33.374Z,16.20
2023-08-29T10:54:07.857Z,17.10
2023-08-29T10:56:44.280Z,15.00
2023-08-29T10:59:36.461Z,14.40
2023-08-29T11:02:33.158Z,14.00
2023-08-29T11:05:04.556Z,13.70
2023-08-29T11:07:34.072Z,11.90
2023-08-29T11:10:31.461Z,15.70
2023-08-29T11:13:13.557Z,12.70
2023-08-29T11:15:59.835Z,16.20
2023-08-29T11:18:34.333Z,12.20
2023-08-29T11:21:10.425Z,13.90
2023-08-29T11:23:42.434Z,15.30
2023-08-29T11:26:12.088Z,15.00
2023-08-29T11:28:46.534Z,14.80
2023-08-29T11:31:14.968Z,14.40
2023-08-29T11:33:47.995Z,14.00
2023-08-29T11:36:17.217Z,14.30
2023-08-29T11:38:45.495Z,15.20
2023-08-29T11:41:29.601Z,14.90
2023-08-29T11:44:59.205Z,13.20
2023-08-29T11:46:49.978Z,12.60
2023-08-29T11:49:17.998Z,14.20
2023-08-29T11:51:47.222Z,16.30
2023-08-29T11:54:57.266Z,14.20
2023-08-29T11:57:29.084Z,17.70
2023-08-29T11:59:58.367Z,19.60
2023-08-29T12:02:27.573Z,13.90
2023-08-29T12:04:57.503Z,12.90
2023-08-29T12:07:32.822Z,14.50
2023-08-29T12:10:32.001Z,17.30
2023-08-29T12:13:12.768Z,13.60
2023-08-29T12:15:44.359Z,12.30
2023-08-29T12:18:26.354Z,13.60
2023-08-29T12:21:19.143Z,12.60
2023-08-29T12:23:47.328Z,12.70
2023-08-29T12:26:18.584Z,14.10
2023-08-29T12:28:46.688Z,12.80
2023-08-29T12:31:14.683Z,13.40
2023-08-29T12:33:42.854Z,19.80
2023-08-29T12:36:10.806Z,17.20
2023-08-29T12:38:39.034Z,13.90
2023-08-29T12:41:07.257Z,12.80
2023-08-29T12:43:35.372Z,16.70
2023-08-29T12:46:03.611Z,13.90
2023-08-29T12:48:31.623Z,17.00
2023-08-29T12:50:59.574Z,13.50
2023-08-29T12:53:28.589Z,13.70
2023-08-29T12:55:56.689Z,14.40
2023-08-29T12:58:24.761Z,16.30
2023-08-29T13:00:52.849Z,13.90
2023-08-29T13:03:20.882Z,14.00
2023-08-29T13:05:49.245Z,15.10
2023-08-29T13:08:19.116Z,14.50
2023-08-29T13:10:47.370Z,18.60
2023-08-29T13:13:15.596Z,17.50
2023-08-29T13:15:51.071Z,16.90
2023-08-29T13:18:20.117Z,15.20
2023-08-29T13:20:48.380Z,12.70
2023-08-29T13:23:16.627Z,14.70
2023-08-29T13:25:44.906Z,14.10
2023-08-29T13:28:12.972Z,15.70
2023-08-29T13:30:41.055Z,13.50
2023-08-29T13:33:09.486Z,15.00
2023-08-29T13:35:38.274Z,16.30
2023-08-29T13:38:08.312Z,15.40
2023-08-29T13:40:36.897Z,16.60
2023-08-29T13:43:05.050Z,15.60
2023-08-29T13:45:33.064Z,13.20
2023-08-29T13:48:01.355Z,15.30
2023-08-29T13:50:29.403Z,16.00
2023-08-29T13:52:59.550Z,14.40
2023-08-29T13:55:27.840Z,16.30
2023-08-29T13:57:55.911Z,12.30
2023-08-29T14:00:23.921Z,15.90
2023-08-29T14:02:53.629Z,14.90
2023-08-29T14:05:21.788Z,16.40
2023-08-29T14:07:49.792Z,16.60
2023-08-29T14:10:18.582Z,14.40
2023-08-29T14:12:46.874Z,14.00
2023-08-29T14:15:15.713Z,16.00
2023-08-29T14:17:43.808Z,13.00
2023-08-29T14:20:12.197Z,16.60
2023-08-29T14:22:40.368Z,13.40
2023-08-29T14:25:08.743Z,14.10
2023-08-29T14:27:40.761Z,13.30
2023-08-29T14:30:09.069Z,15.70
2023-08-29T14:32:37.041Z,13.60
2023-08-29T14:35:05.530Z,20.40
2023-08-29T14:37:33.683Z,15.70
2023-08-29T14:40:01.793Z,14.30
2023-08-29T14:42:29.736Z,13.70
2023-08-29T14:44:58.340Z,13.50
2023-08-29T14:47:26.635Z,15.20
2023-08-29T14:49:55.206Z,14.40
2023-08-29T14:52:23.305Z,16.80
2023-08-29T14:54:53.839Z,16.80
2023-08-29T14:57:23.030Z,12.20
2023-08-29T14:59:50.881Z,13.90
2023-08-29T15:02:18.935Z,13.20
2023-08-29T15:04:48.606Z,15.20
2023-08-29T15:07:17.188Z,18.10
2023-08-29T15:09:45.552Z,12.60
2023-08-29T15:12:13.668Z,14.80
2023-08-29T15:14:41.635Z,12.80
2023-08-29T15:17:09.605Z,15.80
2023-08-29T15:19:40.149Z,13.90
2023-08-29T15:22:08.874Z,13.40
2023-08-29T15:24:36.836Z,14.90
2023-08-29T15:27:05.536Z,15.40
2023-08-29T15:29:33.492Z,11.50
2023-08-29T15:32:01.505Z,13.50
2023-08-29T15:34:32.067Z,12.80
2023-08-29T15:37:02.068Z,13.60
2023-08-29T15:39:33.991Z,12.20
2023-08-29T15:42:06.155Z,14.30
2023-08-29T15:44:40.258Z,12.50
2023-08-29T15:47:10.599Z,11.90
2023-08-29T15:49:39.306Z,12.90
2023-08-29T15:52:07.247Z,12.60
2023-08-29T15:54:35.221Z,14.70
2023-08-29T15:57:04.247Z,14.80
2023-08-29T15:59:32.336Z,11.10
2023-08-29T16:02:00.567Z,12.30
2023-08-29T16:04:28.598Z,16.30
2023-08-29T16:06:56.473Z,15.80
2023-08-29T16:09:24.561Z,14.00
2023-08-29T16:11:52.593Z,13.00
2023-08-29T16:14:20.468Z,16.40
2023-08-29T16:16:48.395Z,14.00
2023-08-29T16:19:17.033Z,13.80
2023-08-29T16:21:45.028Z,14.20
2023-08-29T16:24:12.980Z,14.10
2023-08-29T16:26:40.960Z,12.40
2023-08-29T16:29:10.505Z,13.50
2023-08-29T16:31:38.488Z,14.90
2023-08-29T16:34:09.008Z,14.20
2023-08-29T16:36:36.990Z,16.70
2023-08-29T16:39:06.214Z,15.50
2023-08-29T16:41:34.401Z,16.20
2023-08-29T16:44:02.610Z,13.40
2023-08-29T16:46:31.364Z,15.50
2023-08-29T16:49:00.013Z,14.90
2023-08-29T16:51:28.056Z,16.90
2023-08-29T16:53:55.949Z,15.10
2023-08-29T16:56:24.148Z,13.60
2023-08-29T16:58:52.038Z,14.00
2023-08-29T17:01:20.206Z,15.50
2023-08-29T17:03:48.499Z,16.80
2023-08-29T17:06:16.569Z,15.30
2023-08-29T17:08:44.572Z,15.40
2023-08-29T17:11:12.754Z,17.20
2023-08-29T17:13:40.721Z,15.30
2023-08-29T17:16:10.803Z,15.30
2023-08-29T17:18:42.031Z,13.90
2023-08-29T17:21:10.148Z,15.80
2023-08-29T17:23:38.454Z,13.70
2023-08-29T17:26:06.791Z,13.10
2023-08-29T17:28:34.939Z,15.80
2023-08-29T17:31:02.972Z,16.00
2023-08-29T17:33:31.034Z,15.00
2023-08-29T17:35:59.006Z,12.90
2023-08-29T17:38:26.940Z,14.20
2023-08-29T17:40:59.131Z,16.30
2023-08-29T17:43:27.617Z,15.50
2023-08-29T17:45:57.658Z,14.80
2023-08-29T17:48:28.471Z,16.50
2023-08-29T17:51:00.154Z,14.20
2023-08-29T17:53:28.627Z,16.60
2023-08-29T17:55:56.922Z,18.70
2023-08-29T17:58:25.976Z,17.30
2023-08-29T18:00:55.614Z,18.50
2023-08-29T18:03:23.800Z,21.00
2023-08-29T18:05:53.841Z,16.30
2023-08-29T18:08:25.605Z,19.80
2023-08-29T18:10:55.041Z,18.10
2023-08-29T18:13:23.193Z,17.80
2023-08-29T18:15:52.136Z,18.40
2023-08-29T18:18:32.500Z,20.00
2023-08-29T18:21:00.506Z,17.60
2023-08-29T18:23:28.954Z,18.90
2023-08-29T18:25:59.633Z,19.80
2023-08-29T18:28:27.739Z,17.50
2023-08-29T18:30:59.142Z,19.10
2023-08-29T18:33:28.763Z,17.00
2023-08-29T18:35:57.640Z,18.00
2023-08-29T18:38:25.924Z,19.90
2023-08-29T18:40:56.675Z,20.60
2023-08-29T18:43:25.753Z,21.40
2023-08-29T18:45:53.845Z,18.80
2023-08-29T18:48:21.980Z,20.10
2023-08-29T18:50:52.327Z,19.20
2023-08-29T18:53:21.270Z,19.70
2023-08-29T18:55:49.507Z,20.40
2023-08-29T18:58:17.526Z,19.30
2023-08-29T19:00:48.926Z,21.50
2023-08-29T19:03:20.133Z,21.60
2023-08-29T19:05:48.358Z,22.70
2023-08-29T19:08:18.691Z,21.80
2023-08-29T19:10:47.848Z,23.40
2023-08-29T19:13:16.016Z,20.40
2023-08-29T19:15:44.266Z,22.60
2023-08-29T19:18:15.086Z,28.30
2023-08-29T19:20:44.019Z,24.70
2023-08-29T19:23:13.357Z,25.80
2023-08-29T19:25:42.338Z,26.60
2023-08-29T19:28:11.508Z,26.50
2023-08-29T19:30:39.921Z,25.50
2023-08-29T19:33:12.410Z,28.40
2023-08-29T19:35:41.618Z,24.00
2023-08-29T19:38:11.821Z,23.80
2023-08-29T19:40:40.370Z,25.90
2023-08-29T19:43:10.724Z,24.50
2023-08-29T19:45:42.101Z,24.00
2023-08-29T19:48:11.886Z,22.30
2023-08-29T19:50:41.200Z,23.70
2023-08-29T19:53:10.127Z,25.50
2023-08-29T19:55:38.399Z,26.10
2023-08-29T19:58:06.950Z,24.50
2023-08-29T20:00:35.909Z,25.10
2023-08-29T20:03:05.578Z,27.50
2023-08-29T20:05:39.677Z,23.00
2023-08-29T20:08:15.238Z,24.90
2023-08-29T20:10:46.866Z,23.10
2023-08-29T20:13:19.000Z,23.60
2023-08-29T20:15:47.570Z,25.70
2023-08-29T20:18:18.829Z,23.10
2023-08-29T20:20:48.035Z,23.70
2023-08-29T20:23:19.801Z,22.60
2023-08-29T20:25:48.836Z,20.90
2023-08-29T20:28:17.838Z,22.80
2023-08-29T20:30:47.230Z,23.20
2023-08-29T20:33:15.750Z,22.20
2023-08-29T20:35:45.099Z,21.90
2023-08-29T20:38:17.521Z,22.00
2023-08-29T20:40:46.341Z,20.20
2023-08-29T20:43:21.430Z,23.00
2023-08-29T20:45:58.185Z,21.20
2023-08-29T20:48:53.959Z,18.20
2023-08-29T20:51:22.768Z,18.40
2023-08-29T20:53:50.880Z,19.50
2023-08-29T20:56:18.941Z,18.30
2023-08-29T20:58:47.266Z,18.60
2023-08-29T21:01:15.724Z,19.20
2023-08-29T21:03:44.253Z,20.50
2023-08-29T21:06:13.298Z,18.90
2023-08-29T21:08:57.052Z,18.90
2023-08-29T21:11:29.975Z,16.50
2023-08-29T21:14:04.993Z,18.40
2023-08-29T21:16:42.200Z,17.70
2023-08-29T21:19:10.649Z,18.10
2023-08-29T21:21:38.891Z,19.90
2023-08-29T21:24:07.245Z,19.00
2023-08-29T21:26:35.340Z,18.10
2023-08-29T21:29:03.329Z,16.80
2023-08-29T21:31:31.325Z,17.40
2023-08-29T21:33:59.411Z,18.30
2023-08-29T21:36:27.560Z,17.10
2023-08-29T21:38:55.721Z,19.10
2023-08-29T21:41:23.851Z,19.70
2023-08-29T21:43:52.861Z,17.30
2023-08-29T21:46:20.887Z,17.60
2023-08-29T21:48:48.917Z,20.00
2023-08-29T21:51:21.999Z,18.80
2023-08-29T21:53:50.251Z,17.60
2023-08-29T21:56:20.149Z,19.40
2023-08-29T21:58:48.111Z,18.40
2023-08-29T22:01:16.134Z,19.40
2023-08-29T22:03:44.188Z,21.10
2023-08-29T22:06:12.301Z,19.70
2023-08-29T22:08:40.720Z,20.20
2023-08-29T22:11:09.360Z,20.50
2023-08-29T22:13:37.586Z,23.00
2023-08-29T22:16:05.907Z,22.90
2023-08-29T22:18:33.939Z,23.80
2023-08-29T22:21:04.133Z,19.00
2023-08-29T22:23:33.765Z,22.50
2023-08-29T22:26:05.863Z,23.70
2023-08-29T22:28:34.150Z,23.90
2023-08-29T22:31:02.187Z,20.60
2023-08-29T22:33:32.389Z,23.10
2023-08-29T22:36:00.797Z,22.30
2023-08-29T22:38:29.389Z,24.20
2023-08-29T22:41:21.231Z,23.90
2023-08-29T22:43:57.044Z,22.60
2023-08-29T22:46:25.028Z,22.90
2023-08-29T22:48:53.004Z,23.10
2023-08-29T22:51:21.459Z,24.50
2023-08-29T22:53:49.485Z,26.40
2023-08-29T22:56:18.259Z,25.30
2023-08-29T22:58:46.768Z,23.40
2023-08-29T23:01:14.925Z,25.20
2023-08-29T23:03:42.906Z,21.70
2023-08-29T23:06:10.992Z,26.20
2023-08-29T23:08:39.033Z,25.70
2023-08-29T23:11:08.057Z,22.50
2023-08-29T23:13:36.011Z,23.60
2023-08-29T23:16:05.392Z,23.70
2023-08-29T23:18:34.933Z,22.60
2023-08-29T23:21:02.897Z,23.60
2023-08-29T23:23:30.787Z,23.30
2023-08-29T23:26:01.968Z,23.90
2023-08-29T23:28:30.575Z,26.60
2023-08-29T23:30:58.562Z,26.00
2023-08-29T23:33:26.604Z,26.80
2023-08-29T23:35:54.637Z,26.80
2023-08-29T23:38:22.661Z,27.10
2023-08-29T23:40:51.547Z,27.80
2023-08-29T23:43:19.651Z,28.70
2023-08-29T23:45:47.630Z,30.00
2023-08-29T23:48:15.679Z,29.00
2023-08-29T23:50:43.601Z,26.50
2023-08-29T23:53:11.551Z,31.80
2023-08-29T23:55:39.696Z,31.40
2023-08-29T23:58:07.888Z,28.40
